Time;durP1;ratioP1;P1;durP2;ratioP2;P2;SDS_P1;SDS_P2;PMS_P1;PMS_P2;Temp;Humidity;BMP_temperature;BMP_pressure;BME280_temperature;BME280_humidity;BME280_pressure;Samples;Min_cycle;Max_cycle;Signal;HPM_P1;HPM_P2
2021/08/31 00:00:13;;;;;;;1.33;1.15;;;21.20;54.80;;;;;;6246303;28;20565;-80
2021/08/31 00:03:14;;;;;;;6.32;1.25;;;21.40;54.90;;;;;;6236095;28;20039;-81
2021/08/31 00:06:15;;;;;;;1.92;1.08;;;21.10;54.80;;;;;;6225678;28;20037;-80
2021/08/31 00:09:19;;;;;;;5.13;1.38;;;21.10;54.80;;;;;;6212704;28;20335;-80
2021/08/31 00:12:19;;;;;;;1.40;1.20;;;21.00;54.80;;;;;;6250061;28;20489;-80
2021/08/31 00:15:21;;;;;;;2.42;1.40;;;21.00;54.80;;;;;;6241942;28;20026;-80
2021/08/31 00:18:23;;;;;;;1.90;1.30;;;21.00;54.90;;;;;;6248753;28;20037;-80
2021/08/31 00:21:24;;;;;;;2.28;1.30;;;20.90;55.00;;;;;;6249966;28;20029;-80
2021/08/31 00:24:32;;;;;;;2.60;1.30;;;20.90;55.10;;;;;;6233503;28;20045;-80
2021/08/31 00:27:38;;;;;;;2.17;1.35;;;20.90;55.30;;;;;;6241231;28;20064;-80
2021/08/31 00:30:38;;;;;;;2.67;1.38;;;20.80;55.40;;;;;;6228406;28;20073;-81
2021/08/31 00:33:40;;;;;;;1.92;1.17;;;20.80;55.40;;;;;;6241442;28;20117;-81
2021/08/31 00:36:42;;;;;;;2.03;1.30;;;20.80;55.40;;;;;;6249728;28;20033;-80
2021/08/31 00:39:43;;;;;;;1.67;1.00;;;20.80;55.50;;;;;;6249897;28;20405;-80
2021/08/31 00:42:43;;;;;;;5.53;1.48;;;20.70;55.60;;;;;;6249879;28;20038;-80
2021/08/31 00:45:45;;;;;;;3.65;1.23;;;20.70;55.80;;;;;;6232690;28;20033;-80
2021/08/31 00:48:50;;;;;;;2.38;1.15;;;20.60;55.90;;;;;;6248899;28;20041;-80
2021/08/31 00:51:53;;;;;;;1.20;1.10;;;20.60;55.90;;;;;;6222777;28;20040;-80
2021/08/31 00:54:54;;;;;;;6.65;1.27;;;20.60;56.10;;;;;;6250230;28;20045;-80
2021/08/31 00:57:56;;;;;;;2.38;1.55;;;20.60;56.10;;;;;;6249437;28;20037;-80
2021/08/31 01:00:58;;;;;;;2.05;1.33;;;20.60;56.20;;;;;;6249525;28;20049;-81
2021/08/31 01:03:59;;;;;;;3.88;1.80;;;20.60;56.40;;;;;;6248567;28;20466;-80
2021/08/31 01:07:02;;;;;;;2.55;1.60;;;20.60;56.20;;;;;;6232122;28;20048;-79
2021/08/31 01:10:05;;;;;;;1.58;1.20;;;20.60;56.20;;;;;;6233008;28;20033;-79
2021/08/31 01:13:07;;;;;;;2.78;1.65;;;20.60;56.40;;;;;;6247482;28;20040;-80
2021/08/31 01:16:08;;;;;;;4.35;1.75;;;20.50;56.50;;;;;;6231590;28;20414;-80
2021/08/31 01:19:10;;;;;;;2.83;1.60;;;20.50;56.50;;;;;;6248984;28;20033;-80
2021/08/31 01:22:12;;;;;;;2.00;1.50;;;20.10;56.40;;;;;;6269315;28;20041;-79
2021/08/31 01:25:14;;;;;;;2.95;1.65;;;20.50;56.80;;;;;;6259031;28;20049;-80
2021/08/31 01:28:17;;;;;;;3.15;1.80;;;20.50;56.70;;;;;;6259747;28;20049;-80
2021/08/31 01:31:18;;;;;;;2.47;1.73;;;20.50;56.80;;;;;;6249858;28;20041;-80
2021/08/31 01:34:19;;;;;;;2.20;1.75;;;20.50;56.70;;;;;;6249790;28;20482;-80
2021/08/31 01:37:20;;;;;;;9.95;1.65;;;20.50;56.70;;;;;;6249810;28;20114;-80
2021/08/31 01:40:21;;;;;;;2.58;1.73;;;20.50;56.80;;;;;;6250676;28;20049;-80
2021/08/31 01:43:26;;;;;;;2.40;1.55;;;20.50;56.90;;;;;;6252954;28;20103;-80
2021/08/31 01:46:27;;;;;;;3.50;1.85;;;20.50;56.90;;;;;;6223634;28;20060;-80
2021/08/31 01:49:28;;;;;;;3.55;1.73;;;20.50;56.90;;;;;;6250174;28;20030;-80
2021/08/31 01:52:29;;;;;;;5.35;1.83;;;20.50;57.10;;;;;;6249214;28;20470;-81
2021/08/31 01:55:31;;;;;;;4.53;1.90;;;20.40;57.00;;;;;;6254251;28;20025;-81
2021/08/31 01:58:32;;;;;;;2.70;1.85;;;20.40;57.20;;;;;;6262428;28;20037;-80
2021/08/31 02:01:34;;;;;;;3.20;1.83;;;20.40;57.30;;;;;;6263315;28;20462;-80
2021/08/31 02:04:35;;;;;;;6.15;1.80;;;20.40;57.40;;;;;;6248491;28;20516;-80
2021/08/31 02:07:36;;;;;;;2.22;1.63;;;20.30;57.40;;;;;;6247217;28;20041;-79
2021/08/31 02:10:36;;;;;;;3.97;1.90;;;20.30;57.50;;;;;;6232915;28;20121;-80
2021/08/31 02:13:37;;;;;;;3.80;1.65;;;20.30;57.60;;;;;;6250068;28;20049;-80
2021/08/31 02:16:39;;;;;;;3.03;1.67;;;20.30;57.70;;;;;;6249222;28;20128;-81
2021/08/31 02:19:40;;;;;;;4.22;1.48;;;20.30;57.80;;;;;;6249119;28;20041;-80
2021/08/31 02:22:41;;;;;;;2.67;1.88;;;20.30;57.90;;;;;;6248781;28;20036;-80
2021/08/31 02:25:43;;;;;;;2.85;1.70;;;20.20;58.00;;;;;;6247543;28;20481;-80
2021/08/31 02:28:44;;;;;;;3.08;2.00;;;20.20;58.10;;;;;;6229961;28;20096;-80
2021/08/31 02:31:45;;;;;;;7.05;2.28;;;20.20;58.30;;;;;;6230571;28;20060;-81
2021/08/31 02:34:46;;;;;;;5.57;1.70;;;20.20;58.40;;;;;;6247444;28;20037;-80
2021/08/31 02:37:47;;;;;;;3.80;2.15;;;19.90;58.30;;;;;;6231680;28;20029;-81
2021/08/31 02:40:48;;;;;;;3.40;1.95;;;20.10;58.40;;;;;;6248237;28;20374;-80
2021/08/31 02:43:48;;;;;;;5.05;2.30;;;20.10;58.00;;;;;;6231934;28;20052;-80
2021/08/31 02:46:51;;;;;;;3.47;2.03;;;20.10;58.40;;;;;;6248545;28;20041;-81
2021/08/31 02:49:52;;;;;;;2.08;1.63;;;20.10;58.50;;;;;;6227783;28;20036;-80
2021/08/31 02:52:53;;;;;;;3.55;1.83;;;20.10;58.50;;;;;;6223689;28;20354;-81
2021/08/31 02:55:54;;;;;;;3.55;1.67;;;20.10;58.60;;;;;;6215542;28;20506;-80
2021/08/31 02:58:55;;;;;;;10.57;2.28;;;20.00;58.70;;;;;;6224296;28;20034;-80
2021/08/31 03:02:05;;;;;;;4.28;2.13;;;20.00;58.80;;;;;;6221624;28;20103;-81
2021/08/31 03:05:07;;;;;;;9.90;2.47;;;19.90;58.90;;;;;;6248822;28;20120;-81
2021/08/31 03:08:07;;;;;;;5.63;1.83;;;19.90;59.10;;;;;;6248000;28;20042;-80
2021/08/31 03:11:08;;;;;;;4.40;2.13;;;19.90;59.00;;;;;;6231822;28;20091;-81
2021/08/31 03:14:10;;;;;;;4.00;2.50;;;19.90;59.10;;;;;;6247916;28;20049;-81
2021/08/31 03:17:11;;;;;;;4.47;2.50;;;19.80;59.10;;;;;;6247416;28;20038;-81
2021/08/31 03:20:12;;;;;;;3.42;1.42;;;19.80;59.30;;;;;;6246671;28;20042;-80
2021/08/31 03:23:13;;;;;;;6.20;2.33;;;19.80;59.30;;;;;;6238908;28;20056;-81
2021/08/31 03:26:14;;;;;;;7.20;1.90;;;19.70;59.30;;;;;;6247829;28;20041;-81
2021/08/31 03:29:15;;;;;;;4.35;2.15;;;19.70;59.50;;;;;;6246874;28;20107;-81
2021/08/31 03:32:16;;;;;;;10.55;2.05;;;19.70;59.50;;;;;;6222792;28;20034;-81
2021/08/31 03:35:17;;;;;;;3.88;1.80;;;19.70;59.60;;;;;;6252362;28;20055;-81
2021/08/31 03:38:19;;;;;;;3.25;2.03;;;19.70;59.70;;;;;;6254877;28;20044;-81
2021/08/31 03:41:20;;;;;;;5.22;2.00;;;19.60;59.60;;;;;;6238401;28;20443;-82
2021/08/31 03:44:21;;;;;;;3.70;1.55;;;19.60;59.60;;;;;;6256128;28;20389;-79
2021/08/31 03:47:21;;;;;;;2.13;1.50;;;19.60;59.60;;;;;;6234769;28;20041;-79
2021/08/31 03:50:22;;;;;;;2.25;1.70;;;19.50;59.60;;;;;;6232276;28;20037;-79
2021/08/31 03:53:23;;;;;;;5.35;1.70;;;19.50;59.70;;;;;;6252075;28;20041;-80
2021/08/31 03:56:24;;;;;;;4.50;1.90;;;19.50;59.70;;;;;;6251137;28;20052;-80
2021/08/31 03:59:25;;;;;;;3.10;1.90;;;19.40;59.70;;;;;;6251974;28;20076;-80
2021/08/31 04:02:26;;;;;;;3.67;1.50;;;19.40;59.70;;;;;;6251037;28;20112;-80
2021/08/31 04:05:27;;;;;;;2.38;1.95;;;19.40;59.70;;;;;;6252511;28;20030;-79
2021/08/31 04:08:28;;;;;;;5.53;2.03;;;19.40;59.70;;;;;;6251526;28;20063;-80
2021/08/31 04:11:29;;;;;;;3.63;1.50;;;19.40;59.60;;;;;;6249889;28;20080;-80
2021/08/31 04:14:30;;;;;;;3.15;1.55;;;19.40;59.80;;;;;;6217149;28;20447;-79
2021/08/31 04:17:32;;;;;;;1.52;1.27;;;19.50;59.70;;;;;;6226730;28;20029;-80
2021/08/31 04:20:33;;;;;;;2.83;1.80;;;19.40;59.90;;;;;;6226806;28;20107;-78
2021/08/31 04:23:34;;;;;;;8.35;1.90;;;19.40;59.70;;;;;;6226585;28;20042;-79
2021/08/31 04:27:12;;;;;;;3.75;1.63;;;19.40;59.70;;;;;;6208417;28;20034;-80
2021/08/31 04:30:23;;;;;;;3.13;2.20;;;19.50;60.10;;;;;;6223617;28;20066;-80
2021/08/31 04:33:24;;;;;;;2.47;1.70;;;19.50;60.50;;;;;;6238701;28;20034;-80
2021/08/31 04:36:25;;;;;;;3.30;1.92;;;19.50;59.70;;;;;;6234600;28;20037;-80
2021/08/31 04:39:26;;;;;;;3.72;2.13;;;19.60;59.80;;;;;;6233651;28;20045;-81
2021/08/31 04:42:27;;;;;;;3.72;1.67;;;19.50;59.90;;;;;;6252228;28;20112;-80
2021/08/31 04:45:29;;;;;;;3.78;2.30;;;19.50;60.00;;;;;;6250327;28;20120;-80
2021/08/31 04:48:30;;;;;;;4.80;1.63;;;19.50;60.00;;;;;;6249290;28;20037;-80
2021/08/31 04:51:31;;;;;;;3.95;1.95;;;19.40;60.00;;;;;;6249605;28;20046;-80
2021/08/31 04:54:32;;;;;;;2.63;1.80;;;19.40;60.20;;;;;;6251595;28;20124;-80
2021/08/31 04:57:33;;;;;;;6.38;1.98;;;19.30;60.20;;;;;;6234268;28;20049;-80
2021/08/31 05:00:34;;;;;;;8.38;2.05;;;19.30;60.30;;;;;;6249982;28;20041;-82
2021/08/31 05:03:38;;;;;;;3.25;1.85;;;19.30;60.50;;;;;;6251067;28;20446;-81
2021/08/31 05:06:39;;;;;;;4.78;1.77;;;19.20;60.50;;;;;;6233908;28;20508;-81
2021/08/31 05:09:43;;;;;;;2.33;1.67;;;19.20;60.50;;;;;;6251299;28;20034;-80
2021/08/31 05:12:44;;;;;;;6.88;1.70;;;19.10;60.50;;;;;;6249732;28;20340;-79
2021/08/31 05:15:45;;;;;;;6.18;2.03;;;19.30;60.60;;;;;;6228754;28;20029;-80
2021/08/31 05:18:46;;;;;;;3.10;2.08;;;19.20;60.70;;;;;;6249818;28;20045;-80
2021/08/31 05:21:50;;;;;;;7.50;1.80;;;19.10;60.60;;;;;;6232531;28;20049;-80
2021/08/31 05:24:50;;;;;;;5.07;1.92;;;19.10;60.50;;;;;;6249837;28;20045;-81
2021/08/31 05:27:51;;;;;;;2.45;1.38;;;19.10;60.50;;;;;;6232574;28;20046;-82
2021/08/31 05:30:52;;;;;;;3.30;1.98;;;19.10;60.40;;;;;;6232821;28;20069;-78
2021/08/31 05:33:53;;;;;;;3.08;1.77;;;19.10;60.30;;;;;;6247185;28;20092;-78
2021/08/31 05:36:54;;;;;;;7.93;1.75;;;19.10;60.30;;;;;;6249132;28;20040;-79
2021/08/31 05:39:55;;;;;;;4.80;1.70;;;19.10;60.30;;;;;;6242936;28;20037;-79
2021/08/31 05:42:56;;;;;;;3.55;1.73;;;19.10;60.30;;;;;;6234707;28;20030;-78
2021/08/31 05:45:56;;;;;;;3.20;1.45;;;19.10;60.30;;;;;;6242130;28;20030;-78
2021/08/31 05:48:57;;;;;;;4.07;2.05;;;19.10;60.30;;;;;;6251422;28;20061;-78
2021/08/31 05:51:59;;;;;;;4.80;2.08;;;19.10;60.30;;;;;;6247759;28;20371;-78
2021/08/31 05:55:01;;;;;;;7.10;2.08;;;19.10;60.20;;;;;;6249746;28;20030;-78
2021/08/31 05:58:01;;;;;;;2.05;1.40;;;19.20;60.10;;;;;;6248628;28;20055;-78
2021/08/31 06:01:03;;;;;;;4.28;2.22;;;19.20;60.10;;;;;;6232317;28;20095;-78
2021/08/31 06:04:04;;;;;;;2.15;1.58;;;19.30;60.00;;;;;;6231286;28;20045;-78
2021/08/31 06:07:10;;;;;;;4.05;2.10;;;19.10;59.90;;;;;;6244659;28;20034;-78
2021/08/31 06:10:13;;;;;;;3.97;1.92;;;19.30;59.90;;;;;;6245939;28;20413;-79
2021/08/31 06:13:15;;;;;;;2.97;1.77;;;19.30;59.80;;;;;;6232152;28;20136;-78
2021/08/31 06:16:15;;;;;;;7.00;2.03;;;19.30;59.60;;;;;;6247187;28;20041;-78
2021/08/31 06:19:17;;;;;;;5.70;1.80;;;19.30;59.50;;;;;;6249060;28;20055;-81
2021/08/31 06:22:18;;;;;;;2.20;1.75;;;19.30;59.40;;;;;;6248155;28;20030;-80
2021/08/31 06:25:19;;;;;;;5.13;1.50;;;19.30;59.30;;;;;;6231915;28;20369;-78
2021/08/31 06:28:20;;;;;;;11.20;2.20;;;19.30;59.30;;;;;;6247728;28;20056;-78
2021/08/31 06:31:21;;;;;;;5.55;1.75;;;19.30;59.30;;;;;;6247969;28;20119;-79
2021/08/31 06:34:22;;;;;;;4.35;1.65;;;19.20;59.40;;;;;;6230186;28;20041;-79
2021/08/31 06:37:23;;;;;;;5.65;1.60;;;19.20;59.40;;;;;;6231179;28;20099;-79
2021/08/31 06:40:24;;;;;;;3.78;2.05;;;19.20;59.50;;;;;;6246557;28;20079;-78
2021/08/31 06:43:25;;;;;;;5.05;1.88;;;19.20;59.60;;;;;;6247867;28;20080;-79
2021/08/31 06:46:26;;;;;;;3.63;1.80;;;19.20;59.60;;;;;;6231330;28;20151;-79
2021/08/31 06:49:28;;;;;;;3.92;2.00;;;19.20;59.70;;;;;;6248010;28;20044;-79
2021/08/31 06:52:29;;;;;;;9.40;2.50;;;19.20;59.70;;;;;;6246948;28;20042;-79
2021/08/31 06:55:29;;;;;;;5.25;2.45;;;19.30;59.70;;;;;;6249162;28;20037;-78
2021/08/31 06:58:30;;;;;;;5.78;1.98;;;19.40;59.70;;;;;;6244103;28;20105;-78
2021/08/31 07:01:32;;;;;;;4.47;2.15;;;19.50;59.50;;;;;;6246385;28;20041;-78
2021/08/31 07:04:32;;;;;;;4.57;2.22;;;19.60;59.30;;;;;;6246681;28;20042;-78
2021/08/31 07:07:34;;;;;;;6.30;2.55;;;19.70;59.10;;;;;;6230642;28;20037;-78
2021/08/31 07:10:35;;;;;;;3.70;2.20;;;19.80;59.50;;;;;;6246988;28;20401;-78
2021/08/31 07:13:36;;;;;;;4.88;2.17;;;19.80;58.80;;;;;;6234142;28;20033;-79
2021/08/31 07:16:38;;;;;;;6.20;2.20;;;19.80;58.80;;;;;;6251770;28;20057;-79
2021/08/31 07:19:39;;;;;;;8.27;2.47;;;19.90;58.90;;;;;;6252188;28;20474;-77
2021/08/31 07:22:40;;;;;;;5.45;2.10;;;19.90;58.80;;;;;;6250612;28;20514;-78
2021/08/31 07:25:42;;;;;;;11.80;2.55;;;20.80;59.10;;;;;;6248986;28;20446;-78
2021/08/31 07:28:43;;;;;;;8.48;2.45;;;20.00;58.50;;;;;;6250836;28;20402;-78
2021/08/31 07:31:44;;;;;;;5.63;2.60;;;20.00;58.40;;;;;;6251256;28;20045;-79
2021/08/31 07:34:45;;;;;;;6.85;2.30;;;20.10;58.20;;;;;;6252003;28;20527;-79
2021/08/31 07:37:46;;;;;;;3.70;2.20;;;20.20;58.10;;;;;;6235332;28;20041;-78
2021/08/31 07:40:47;;;;;;;11.38;2.83;;;20.30;57.80;;;;;;6234679;28;20106;-78
2021/08/31 07:43:48;;;;;;;8.35;3.05;;;20.40;57.60;;;;;;6251489;28;20461;-78
2021/08/31 07:46:51;;;;;;;5.40;2.55;;;20.50;57.60;;;;;;6251295;28;20041;-78
2021/08/31 07:49:51;;;;;;;4.63;2.90;;;20.60;57.20;;;;;;6254764;28;20034;-78
2021/08/31 07:52:52;;;;;;;8.57;2.72;;;20.80;57.00;;;;;;6253161;28;20033;-79
2021/08/31 07:55:53;;;;;;;5.75;2.50;;;20.90;56.80;;;;;;6235345;28;20041;-77
2021/08/31 07:58:54;;;;;;;4.65;3.05;;;21.00;56.50;;;;;;6251578;28;20038;-76
2021/08/31 08:01:56;;;;;;;6.05;2.53;;;21.10;56.30;;;;;;6256252;28;20041;-78
2021/08/31 08:04:59;;;;;;;8.32;3.00;;;21.30;56.10;;;;;;6252204;28;20091;-77
2021/08/31 08:07:59;;;;;;;6.80;2.35;;;21.40;55.90;;;;;;6251418;28;20048;-77
2021/08/31 08:11:00;;;;;;;4.22;2.25;;;21.40;55.60;;;;;;6266046;28;20036;-77
2021/08/31 08:14:02;;;;;;;3.83;2.90;;;21.60;55.40;;;;;;6259163;28;20033;-77
2021/08/31 08:17:03;;;;;;;12.10;3.10;;;21.70;55.20;;;;;;6272601;28;20167;-77
2021/08/31 08:20:08;;;;;;;3.75;2.40;;;21.80;54.90;;;;;;6250822;28;20065;-77
2021/08/31 08:23:10;;;;;;;8.15;2.70;;;21.90;54.60;;;;;;6251072;28;20475;-78
2021/08/31 08:26:11;;;;;;;5.10;2.85;;;22.00;54.40;;;;;;6249569;28;20038;-77
2021/08/31 08:29:12;;;;;;;4.05;2.47;;;22.10;54.20;;;;;;6232734;28;20107;-77
2021/08/31 08:32:13;;;;;;;4.90;2.60;;;22.00;54.00;;;;;;6249831;28;20064;-77
2021/08/31 08:35:15;;;;;;;11.45;3.17;;;22.10;54.00;;;;;;6233727;28;20343;-77
2021/08/31 08:38:16;;;;;;;4.10;2.40;;;22.10;53.90;;;;;;6250886;28;20033;-79
2021/08/31 08:41:17;;;;;;;7.18;2.90;;;22.20;53.70;;;;;;6250408;28;20042;-78
2021/08/31 08:44:18;;;;;;;5.00;2.65;;;22.30;53.50;;;;;;6249972;28;20115;-76
2021/08/31 08:47:19;;;;;;;5.60;2.75;;;22.40;53.30;;;;;;6250302;28;20052;-78
2021/08/31 08:50:20;;;;;;;8.95;2.45;;;22.40;53.10;;;;;;6249466;28;20033;-77
2021/08/31 08:53:21;;;;;;;9.88;2.30;;;22.60;52.90;;;;;;6250336;28;20061;-77
2021/08/31 08:56:22;;;;;;;10.68;2.72;;;22.70;52.70;;;;;;6249248;28;20039;-77
2021/08/31 08:59:24;;;;;;;5.35;2.67;;;22.80;52.50;;;;;;6248858;28;20316;-78
2021/08/31 09:02:39;;;;;;;5.57;2.75;;;22.90;52.20;;;;;;6250049;28;20040;-78
2021/08/31 09:05:40;;;;;;;6.68;2.33;;;22.90;52.10;;;;;;6246133;28;20064;-78
2021/08/31 09:08:54;;;;;;;4.28;2.70;;;22.90;52.10;;;;;;6231374;28;20026;-79
2021/08/31 09:16:35;;;;;;;3.70;2.60;;;23.00;52.00;;;;;;6242401;28;20454;-79
2021/08/31 09:19:37;;;;;;;4.53;2.47;;;23.10;51.80;;;;;;6249496;28;20110;-79
2021/08/31 09:22:38;;;;;;;7.95;2.90;;;23.20;51.60;;;;;;6231796;28;20026;-77
2021/08/31 09:25:41;;;;;;;7.60;2.78;;;23.30;51.50;;;;;;6231897;28;20469;-77
2021/08/31 09:28:43;;;;;;;5.40;2.90;;;24.20;51.40;;;;;;6232056;28;20037;-77
2021/08/31 09:31:50;;;;;;;16.80;3.08;;;23.40;50.80;;;;;;6246792;28;20049;-78
2021/08/31 09:34:51;;;;;;;2.90;2.08;;;23.50;50.70;;;;;;6247786;28;20030;-78
2021/08/31 09:37:58;;;;;;;3.15;2.40;;;23.70;50.40;;;;;;6232030;28;20033;-78
2021/08/31 09:40:59;;;;;;;3.88;2.38;;;23.70;50.10;;;;;;6247193;28;20051;-77
2021/08/31 09:44:04;;;;;;;3.50;2.42;;;23.90;49.90;;;;;;6248200;28;20041;-78
2021/08/31 09:47:05;;;;;;;7.22;2.35;;;24.00;49.60;;;;;;6249005;28;20359;-78
2021/08/31 09:50:07;;;;;;;5.78;2.35;;;24.10;49.40;;;;;;6227197;28;20041;-79
2021/08/31 09:53:09;;;;;;;3.75;2.33;;;24.10;49.10;;;;;;6236640;28;20042;-78
2021/08/31 09:56:12;;;;;;;4.93;2.13;;;24.20;48.90;;;;;;6248821;28;20439;-77
2021/08/31 09:59:13;;;;;;;6.07;2.30;;;24.30;48.70;;;;;;6248429;28;20419;-78
2021/08/31 10:02:14;;;;;;;4.93;2.58;;;24.50;48.40;;;;;;6247759;28;20037;-75
2021/08/31 10:05:15;;;;;;;7.30;2.50;;;24.60;48.10;;;;;;6231401;28;20040;-77
2021/08/31 10:08:18;;;;;;;4.72;2.13;;;24.80;47.80;;;;;;6247587;28;20065;-78
2021/08/31 10:11:19;;;;;;;7.88;2.40;;;25.00;47.40;;;;;;6247999;28;20419;-77
2021/08/31 10:14:20;;;;;;;5.05;2.30;;;25.20;47.10;;;;;;6230841;28;20061;-77
2021/08/31 10:17:29;;;;;;;4.10;1.98;;;25.40;46.60;;;;;;6231119;28;20033;-76
2021/08/31 10:20:32;;;;;;;8.02;2.80;;;25.60;46.30;;;;;;6229966;28;20037;-77
2021/08/31 10:23:37;;;;;;;9.07;2.55;;;25.80;46.00;;;;;;6247046;28;20037;-78
2021/08/31 10:26:38;;;;;;;6.35;3.25;;;25.80;45.50;;;;;;6230980;28;20187;-79
2021/08/31 10:29:39;;;;;;;5.80;3.22;;;25.90;45.40;;;;;;6226468;28;20046;-79
2021/08/31 10:32:41;;;;;;;5.80;3.38;;;26.10;45.10;;;;;;6246371;28;20037;-79
2021/08/31 10:35:48;;;;;;;4.85;2.60;;;26.20;44.80;;;;;;6247057;28;20186;-79
2021/08/31 10:38:51;;;;;;;8.60;2.58;;;26.30;44.60;;;;;;6230949;28;20124;-77
2021/08/31 10:41:52;;;;;;;7.57;2.92;;;26.40;44.30;;;;;;6230679;28;20041;-77
2021/08/31 10:45:25;;;;;;;3.28;2.25;;;26.50;44.00;;;;;;6246278;28;20405;-77
2021/08/31 10:48:26;;;;;;;2.88;1.95;;;26.50;43.80;;;;;;6245981;28;20108;-78
2021/08/31 10:51:27;;;;;;;7.47;2.33;;;26.60;43.70;;;;;;6245657;28;20033;-78
2021/08/31 10:54:46;;;;;;;3.53;2.20;;;26.60;43.60;;;;;;6245950;28;20111;-77
2021/08/31 10:57:47;;;;;;;3.90;2.00;;;26.70;43.40;;;;;;6201479;28;20033;-78
2021/08/31 11:00:49;;;;;;;6.40;3.25;;;26.80;43.10;;;;;;6218770;28;20042;-78
2021/08/31 11:03:52;;;;;;;2.85;2.03;;;26.90;42.90;;;;;;6218872;28;20589;-79
2021/08/31 11:06:58;;;;;;;2.97;1.88;;;27.00;42.60;;;;;;6219107;28;20034;-77
2021/08/31 11:09:59;;;;;;;5.03;2.35;;;27.10;42.30;;;;;;6220611;28;20057;-77
2021/08/31 11:13:21;;;;;;;5.53;2.38;;;27.10;42.10;;;;;;6201535;28;20123;-77
2021/08/31 11:16:30;;;;;;;4.07;2.60;;;27.10;42.10;;;;;;6204288;28;20034;-77
2021/08/31 11:19:31;;;;;;;3.63;2.17;;;27.10;42.00;;;;;;6221110;28;20464;-77
2021/08/31 11:22:32;;;;;;;7.90;2.17;;;27.10;41.90;;;;;;6203193;28;20042;-79
2021/08/31 11:25:34;;;;;;;4.38;2.63;;;27.10;41.90;;;;;;6220939;28;20026;-79
2021/08/31 11:28:35;;;;;;;2.28;1.90;;;27.00;41.70;;;;;;6209649;28;20042;-78
2021/08/31 11:31:37;;;;;;;4.32;2.20;;;27.00;41.70;;;;;;6220824;28;20072;-79
2021/08/31 11:34:38;;;;;;;3.08;1.80;;;27.30;41.60;;;;;;6219415;28;20402;-76
2021/08/31 11:37:51;;;;;;;2.72;1.80;;;27.50;40.70;;;;;;6202769;28;20038;-78
2021/08/31 11:40:52;;;;;;;6.50;1.90;;;27.70;40.50;;;;;;6244636;28;20371;-78
2021/08/31 11:43:58;;;;;;;7.07;1.67;;;27.60;40.30;;;;;;6245286;28;20041;-78
2021/08/31 11:46:59;;;;;;;3.05;1.90;;;27.70;40.60;;;;;;6247209;28;20121;-78
2021/08/31 11:50:01;;;;;;;3.28;2.20;;;27.80;40.20;;;;;;6273416;28;20037;-79
2021/08/31 11:53:16;;;;;;;2.60;1.50;;;28.00;39.80;;;;;;6252814;28;20037;-79
2021/08/31 11:56:20;;;;;;;3.17;1.77;;;28.30;39.60;;;;;;6243769;28;20030;-78
2021/08/31 11:59:44;;;;;;;2.70;1.75;;;28.70;38.90;;;;;;6254901;28;20040;-78
2021/08/31 12:02:47;;;;;;;4.28;1.98;;;29.00;38.20;;;;;;6255384;28;20079;-78
2021/08/31 12:06:02;;;;;;;2.72;1.83;;;29.20;37.80;;;;;;6246048;28;20042;-78
2021/08/31 12:09:04;;;;;;;4.25;1.92;;;29.50;37.50;;;;;;6227756;28;20033;-77
2021/08/31 12:12:05;;;;;;;4.25;1.95;;;29.90;36.80;;;;;;6224873;28;20336;-79
2021/08/31 12:15:07;;;;;;;3.13;1.58;;;30.20;35.90;;;;;;6244858;28;20037;-79
2021/08/31 12:18:09;;;;;;;3.20;1.88;;;30.40;35.30;;;;;;6228765;28;20052;-80
2021/08/31 12:21:24;;;;;;;2.70;1.90;;;30.30;35.10;;;;;;6205263;28;20362;-78
2021/08/31 12:24:25;;;;;;;2.70;1.90;;;30.00;35.50;;;;;;6238513;28;20033;-78
2021/08/31 12:27:54;;;;;;;25.85;2.92;;;29.80;36.00;;;;;;6246321;28;20044;-78
2021/08/31 12:31:12;;;;;;;8.43;2.13;;;29.90;35.70;;;;;;6233256;28;20045;-78
2021/08/31 12:34:30;;;;;;;3.05;2.25;;;30.00;35.50;;;;;;6225607;28;20101;-77
2021/08/31 12:37:35;;;;;;;3.20;2.40;;;30.30;34.90;;;;;;6264173;28;20044;-78
2021/08/31 12:40:58;;;;;;;2.67;1.90;;;30.30;34.80;;;;;;6268950;28;20117;-78
2021/08/31 12:43:59;;;;;;;2.72;1.80;;;30.10;34.90;;;;;;6249873;28;20410;-78
2021/08/31 12:47:08;;;;;;;3.05;2.20;;;30.20;34.90;;;;;;6268891;28;20358;-77
2021/08/31 12:50:11;;;;;;;4.45;2.30;;;29.90;35.30;;;;;;6268959;28;20040;-77
2021/08/31 12:53:12;;;;;;;2.88;2.30;;;29.80;35.40;;;;;;6221412;28;20038;-78
2021/08/31 12:56:15;;;;;;;2.40;2.03;;;30.20;34.80;;;;;;6222072;28;20061;-78
2021/08/31 12:59:15;;;;;;;3.05;2.13;;;31.20;33.60;;;;;;6222159;28;20049;-78
2021/08/31 13:02:17;;;;;;;3.40;2.22;;;31.80;32.40;;;;;;6225639;28;20045;-78
2021/08/31 13:05:21;;;;;;;8.43;2.30;;;31.80;32.20;;;;;;6243872;28;20067;-77
2021/08/31 13:08:22;;;;;;;5.18;2.38;;;31.50;32.50;;;;;;6228910;28;20133;-77
2021/08/31 13:11:25;;;;;;;3.10;2.28;;;31.80;32.40;;;;;;6227186;28;24828;-78
2021/08/31 13:14:27;;;;;;;6.70;2.10;;;31.90;31.90;;;;;;6245322;28;20064;-79
2021/08/31 13:17:28;;;;;;;4.72;2.10;;;32.00;31.80;;;;;;6245495;28;20418;-78
2021/08/31 13:20:32;;;;;;;2.65;2.03;;;32.50;31.60;;;;;;6245127;28;20057;-78
2021/08/31 13:23:33;;;;;;;4.80;2.17;;;33.60;30.10;;;;;;6245020;28;20038;-79
2021/08/31 13:26:35;;;;;;;8.85;2.00;;;34.80;29.10;;;;;;6244683;28;20049;-79
2021/08/31 13:29:36;;;;;;;4.55;1.88;;;35.40;28.30;;;;;;6236261;28;20041;-80
2021/08/31 13:32:36;;;;;;;3.83;2.42;;;35.80;27.70;;;;;;6217572;28;20049;-78
2021/08/31 13:35:37;;;;;;;2.80;2.05;;;36.10;27.10;;;;;;6251681;28;20037;-79
2021/08/31 13:38:38;;;;;;;3.30;2.13;;;36.60;26.80;;;;;;6275751;28;20033;-77
2021/08/31 13:41:41;;;;;;;2.92;2.03;;;36.90;26.50;;;;;;6270620;28;20053;-78
2021/08/31 13:44:42;;;;;;;5.43;1.90;;;37.30;26.10;;;;;;6270488;28;20039;-77
2021/08/31 13:47:43;;;;;;;2.53;1.90;;;37.60;25.50;;;;;;6265221;28;20374;-78
2021/08/31 13:50:44;;;;;;;3.10;2.10;;;37.30;25.60;;;;;;6264166;28;20049;-77
2021/08/31 13:53:45;;;;;;;4.30;2.40;;;36.60;26.10;;;;;;6226955;28;20055;-78
2021/08/31 13:56:45;;;;;;;3.70;2.60;;;36.60;26.20;;;;;;6227594;28;20359;-79
2021/08/31 13:59:46;;;;;;;5.13;2.03;;;37.10;25.50;;;;;;6244569;28;20103;-77
2021/08/31 14:02:47;;;;;;;2.75;1.75;;;37.30;25.10;;;;;;6231428;28;20034;-78
2021/08/31 14:05:48;;;;;;;3.53;2.17;;;37.40;25.00;;;;;;6236165;28;20117;-77
2021/08/31 14:08:49;;;;;;;5.85;2.38;;;36.80;25.50;;;;;;6239803;28;20399;-77
2021/08/31 14:11:50;;;;;;;2.58;1.85;;;36.10;26.10;;;;;;6243836;28;20159;-78
2021/08/31 14:14:51;;;;;;;3.78;2.03;;;35.30;26.90;;;;;;6226885;28;20038;-77
2021/08/31 14:17:52;;;;;;;4.97;2.28;;;34.60;27.60;;;;;;6227251;28;20034;-79
2021/08/31 14:20:53;;;;;;;3.83;2.17;;;34.10;28.10;;;;;;6243056;28;20037;-78
2021/08/31 14:23:56;;;;;;;4.03;2.42;;;33.60;28.60;;;;;;6222450;28;20038;-77
2021/08/31 14:26:57;;;;;;;6.07;2.40;;;33.00;29.10;;;;;;6235121;28;20450;-77
2021/08/31 14:29:58;;;;;;;4.25;2.28;;;32.40;29.80;;;;;;6241521;28;20115;-80
2021/08/31 14:32:59;;;;;;;7.55;2.28;;;31.80;30.50;;;;;;6225653;28;20029;-78
2021/08/31 14:36:00;;;;;;;2.55;1.90;;;31.20;31.30;;;;;;6250068;28;20033;-77
2021/08/31 14:39:01;;;;;;;3.20;2.33;;;30.70;32.00;;;;;;6267275;28;20089;-77
2021/08/31 14:42:02;;;;;;;3.05;2.00;;;30.40;32.70;;;;;;6265993;28;20442;-78
2021/08/31 14:45:04;;;;;;;4.15;2.38;;;30.10;33.10;;;;;;6268042;28;20044;-78
2021/08/31 14:48:05;;;;;;;2.40;2.00;;;29.90;33.40;;;;;;6264619;28;20138;-79
2021/08/31 14:51:06;;;;;;;4.18;2.40;;;29.70;33.80;;;;;;6257476;28;20454;-77
2021/08/31 14:54:07;;;;;;;6.25;2.00;;;29.50;34.10;;;;;;6225419;28;20122;-79
2021/08/31 14:57:08;;;;;;;5.28;1.73;;;29.30;34.30;;;;;;6224144;28;20041;-77
2021/08/31 15:00:09;;;;;;;3.90;1.90;;;29.20;34.60;;;;;;6241218;28;20048;-79
2021/08/31 15:03:10;;;;;;;4.35;2.00;;;29.10;35.00;;;;;;6241491;28;20403;-77
2021/08/31 15:06:11;;;;;;;10.40;2.67;;;28.90;35.40;;;;;;6240907;28;20128;-77
2021/08/31 15:09:14;;;;;;;3.65;2.00;;;28.80;35.60;;;;;;6241339;28;20041;-77
2021/08/31 15:12:15;;;;;;;5.05;2.17;;;28.70;35.90;;;;;;6241364;28;20037;-79
2021/08/31 15:15:16;;;;;;;6.10;2.40;;;28.60;36.10;;;;;;6224172;28;20033;-77
2021/08/31 15:18:17;;;;;;;3.28;2.10;;;28.50;36.40;;;;;;6241971;28;20446;-77
2021/08/31 15:21:21;;;;;;;3.60;2.35;;;28.40;36.70;;;;;;6240696;28;20042;-77
2021/08/31 15:24:22;;;;;;;3.58;2.28;;;28.30;36.80;;;;;;6243597;28;20030;-77
2021/08/31 15:27:23;;;;;;;3.15;2.20;;;28.20;36.90;;;;;;6242917;28;20045;-78
2021/08/31 15:30:25;;;;;;;4.18;2.22;;;28.20;37.00;;;;;;6226268;28;20083;-78
2021/08/31 15:33:26;;;;;;;3.85;2.28;;;28.10;37.20;;;;;;6245547;28;20045;-78
2021/08/31 15:36:30;;;;;;;4.25;2.35;;;28.10;37.50;;;;;;6260198;28;20110;-78
2021/08/31 15:39:32;;;;;;;3.40;2.17;;;28.10;37.50;;;;;;6275072;28;20044;-78
2021/08/31 15:42:33;;;;;;;3.30;2.10;;;28.10;37.50;;;;;;6230337;28;20041;-78
2021/08/31 15:45:34;;;;;;;3.25;2.17;;;28.20;37.50;;;;;;6269893;28;20355;-78
2021/08/31 15:48:34;;;;;;;2.13;1.90;;;28.20;37.40;;;;;;6272331;28;20087;-78
2021/08/31 15:51:37;;;;;;;4.25;2.00;;;28.30;37.50;;;;;;6260339;28;20495;-78